createdAt,value
2022-10-04T00:01:09.035Z,86.94
2022-10-04T00:03:43.871Z,86.88
2022-10-04T00:06:19.480Z,86.77
2022-10-04T00:08:51.830Z,86.85
2022-10-04T00:11:26.065Z,86.88
2022-10-04T00:13:57.475Z,86.96
2022-10-04T00:16:30.503Z,86.80
2022-10-04T00:19:25.375Z,86.89
2022-10-04T00:22:17.460Z,86.68
2022-10-04T00:25:21.073Z,86.73
2022-10-04T00:28:41.149Z,86.71
2022-10-04T00:31:18.242Z,86.69
2022-10-04T00:33:47.520Z,86.74
2022-10-04T00:37:01.497Z,86.64
2022-10-04T00:39:43.192Z,86.63
2022-10-04T00:42:41.479Z,86.68
2022-10-04T00:45:18.909Z,86.52
2022-10-04T00:48:20.618Z,86.56
2022-10-04T00:50:53.867Z,86.55
2022-10-04T00:53:41.222Z,86.53
2022-10-04T00:56:13.475Z,86.58
2022-10-04T00:58:50.569Z,86.63
2022-10-04T01:01:23.492Z,86.81
2022-10-04T01:03:53.680Z,86.61
2022-10-04T01:06:22.408Z,86.63
2022-10-04T01:08:52.505Z,86.75
2022-10-04T01:11:24.641Z,86.74
2022-10-04T01:13:56.705Z,86.77
2022-10-04T01:16:27.559Z,86.81
2022-10-04T01:18:55.705Z,86.92
2022-10-04T01:21:27.870Z,86.92
2022-10-04T01:24:21.134Z,87.07
2022-10-04T01:26:48.915Z,87.19
2022-10-04T01:29:18.528Z,87.05
2022-10-04T01:31:48.576Z,87.21
2022-10-04T01:34:18.413Z,87.33
2022-10-04T01:36:48.084Z,87.21
2022-10-04T01:39:17.669Z,87.34
2022-10-04T01:41:51.337Z,87.49
2022-10-04T01:44:27.231Z,87.35
2022-10-04T01:46:59.556Z,87.53
2022-10-04T01:49:30.734Z,87.56
2022-10-04T01:52:04.641Z,87.55
2022-10-04T01:54:36.304Z,87.59
2022-10-04T01:57:13.818Z,87.60
2022-10-04T01:59:48.919Z,87.70
2022-10-04T02:02:25.276Z,87.63
2022-10-04T02:04:56.278Z,87.72
2022-10-04T02:07:28.720Z,87.94
2022-10-04T02:09:59.228Z,87.91
2022-10-04T02:12:30.763Z,87.79
2022-10-04T02:15:01.588Z,87.85
2022-10-04T02:17:31.821Z,87.85
2022-10-04T02:20:02.248Z,88.09
2022-10-04T02:22:30.638Z,88.07
2022-10-04T02:24:58.980Z,88.20
2022-10-04T02:27:30.550Z,88.30
2022-10-04T02:30:03.280Z,88.25
2022-10-04T02:32:51.035Z,88.29
2022-10-04T02:35:20.343Z,88.35
2022-10-04T02:37:54.112Z,88.35
2022-10-04T02:40:29.622Z,88.49
2022-10-04T02:43:02.760Z,88.52
2022-10-04T02:45:40.509Z,88.56
2022-10-04T02:48:22.045Z,88.45
2022-10-04T02:50:52.967Z,88.54
2022-10-04T02:53:26.339Z,88.82
2022-10-04T02:55:55.589Z,88.69
2022-10-04T02:58:25.849Z,88.68
2022-10-04T03:00:57.573Z,88.64
2022-10-04T03:03:27.883Z,88.72
2022-10-04T03:06:01.838Z,89.05
2022-10-04T03:08:32.597Z,88.96
2022-10-04T03:11:02.371Z,88.94
2022-10-04T03:13:31.695Z,89.02
2022-10-04T03:15:59.513Z,89.10
2022-10-04T03:18:28.348Z,89.27
2022-10-04T03:20:56.420Z,89.18
2022-10-04T03:23:24.347Z,89.34
2022-10-04T03:25:56.824Z,89.22
2022-10-04T03:28:24.495Z,89.33
2022-10-04T03:30:52.282Z,89.37
2022-10-04T03:33:25.907Z,89.29
2022-10-04T03:35:59.871Z,89.44
2022-10-04T03:38:28.983Z,89.66
2022-10-04T03:41:00.027Z,89.51
2022-10-04T03:43:30.841Z,89.72
2022-10-04T03:46:00.240Z,89.66
2022-10-04T03:48:33.124Z,89.67
2022-10-04T03:51:02.318Z,89.72
2022-10-04T03:53:35.925Z,89.75
2022-10-04T03:56:12.082Z,89.84
2022-10-04T03:58:40.194Z,90.07
2022-10-04T04:01:33.955Z,89.98
2022-10-04T04:04:06.841Z,89.89
2022-10-04T04:06:42.576Z,90.06
2022-10-04T04:09:19.874Z,90.10
2022-10-04T04:11:50.719Z,90.38
2022-10-04T04:14:24.208Z,90.27
2022-10-04T04:16:53.957Z,90.38
2022-10-04T04:19:25.045Z,90.31
2022-10-04T04:21:55.247Z,90.34
2022-10-04T04:24:27.868Z,90.27
2022-10-04T04:26:59.603Z,90.19
2022-10-04T04:29:33.427Z,90.28
2022-10-04T04:32:05.382Z,90.59
2022-10-04T04:34:44.800Z,90.53
2022-10-04T04:37:12.370Z,90.45
2022-10-04T04:39:40.533Z,90.55
2022-10-04T04:42:14.974Z,90.43
2022-10-04T04:44:48.929Z,90.70
2022-10-04T04:47:27.080Z,90.57
2022-10-04T04:49:57.194Z,90.75
2022-10-04T04:52:27.489Z,90.72
2022-10-04T04:54:56.319Z,90.64
2022-10-04T04:57:24.792Z,90.71
2022-10-04T04:59:56.930Z,90.44
2022-10-04T05:02:36.593Z,90.69
2022-10-04T05:05:23.430Z,90.62
2022-10-04T05:08:09.220Z,90.69
2022-10-04T05:10:38.799Z,90.71
2022-10-04T05:13:09.608Z,90.69
2022-10-04T05:15:39.464Z,90.75
2022-10-04T05:18:22.711Z,90.80
2022-10-04T05:20:53.576Z,90.75
2022-10-04T05:23:21.371Z,90.84
2022-10-04T05:25:49.592Z,90.81
2022-10-04T05:28:18.068Z,90.61
2022-10-04T05:31:09.776Z,90.76
2022-10-04T05:33:44.703Z,90.55
2022-10-04T05:36:39.478Z,90.60
2022-10-04T05:39:13.667Z,90.67
2022-10-04T05:41:51.291Z,90.65
2022-10-04T05:44:25.469Z,90.75
2022-10-04T05:46:54.422Z,90.64
2022-10-04T05:49:24.904Z,90.53
2022-10-04T05:51:55.738Z,90.49
2022-10-04T05:54:26.123Z,90.71
2022-10-04T05:57:20.402Z,90.51
2022-10-04T06:00:06.047Z,90.40
2022-10-04T06:02:54.202Z,90.50
2022-10-04T06:05:29.209Z,90.35
2022-10-04T06:08:04.815Z,90.32
2022-10-04T06:10:48.597Z,90.40
2022-10-04T06:13:36.132Z,90.25
2022-10-04T06:16:11.637Z,90.18
2022-10-04T06:18:58.902Z,90.19
2022-10-04T06:21:29.195Z,90.14
2022-10-04T06:24:02.305Z,90.10
2022-10-04T06:26:37.768Z,90.04
2022-10-04T06:29:11.536Z,90.01
2022-10-04T06:31:57.364Z,89.75
2022-10-04T06:34:54.397Z,89.66
2022-10-04T06:37:38.518Z,89.63
2022-10-04T06:40:28.047Z,89.48
2022-10-04T06:43:14.360Z,89.43
2022-10-04T06:46:01.120Z,89.31
2022-10-04T06:49:03.326Z,89.18
2022-10-04T06:51:51.337Z,89.00
2022-10-04T06:54:37.573Z,88.92
2022-10-04T06:57:34.811Z,88.82
2022-10-04T07:00:13.083Z,88.53
2022-10-04T07:02:46.437Z,88.35
2022-10-04T07:05:29.627Z,88.28
2022-10-04T07:08:06.437Z,88.16
2022-10-04T07:10:40.341Z,88.11
2022-10-04T07:13:21.888Z,87.73
2022-10-04T07:15:57.776Z,87.57
2022-10-04T07:18:29.603Z,87.35
2022-10-04T07:21:06.568Z,86.99
2022-10-04T07:23:36.808Z,86.47
2022-10-04T07:26:08.131Z,86.10
2022-10-04T07:29:01.540Z,85.94
2022-10-04T07:31:34.067Z,85.63
2022-10-04T07:34:09.047Z,85.19
2022-10-04T07:36:45.896Z,84.83
2022-10-04T07:39:16.831Z,84.54
2022-10-04T07:41:52.384Z,83.98
2022-10-04T07:44:31.899Z,83.17
2022-10-04T07:47:03.475Z,82.53
2022-10-04T07:49:38.995Z,82.02
2022-10-04T07:52:21.242Z,81.78
2022-10-04T07:54:57.720Z,81.28
2022-10-04T07:57:33.335Z,80.98
2022-10-04T08:00:11.759Z,80.60
2022-10-04T08:02:52.390Z,79.83
2022-10-04T08:05:24.468Z,78.68
2022-10-04T08:08:07.860Z,78.75
2022-10-04T08:10:44.175Z,78.71
2022-10-04T08:13:25.919Z,78.61
2022-10-04T08:16:01.153Z,78.36
2022-10-04T08:18:43.334Z,78.37
2022-10-04T08:21:17.315Z,78.40
2022-10-04T08:24:00.935Z,78.50
2022-10-04T08:26:52.813Z,78.18
2022-10-04T08:29:42.269Z,78.22
2022-10-04T08:32:22.890Z,78.18
2022-10-04T08:35:15.648Z,77.73
2022-10-04T08:38:00.943Z,77.55
2022-10-04T08:41:17.759Z,77.17
2022-10-04T08:44:18.428Z,76.82
2022-10-04T08:47:21.743Z,75.97
2022-10-04T08:50:25.201Z,75.34
2022-10-04T08:53:29.402Z,74.46
2022-10-04T08:56:09.519Z,73.31
2022-10-04T08:58:52.300Z,72.98
2022-10-04T09:01:45.072Z,72.70
2022-10-04T09:04:44.076Z,73.11
2022-10-04T09:07:38.795Z,73.70
2022-10-04T09:10:32.986Z,73.65
2022-10-04T09:13:21.586Z,72.02
2022-10-04T09:15:53.193Z,71.56
2022-10-04T09:18:30.987Z,71.05
2022-10-04T09:21:10.028Z,70.73
2022-10-04T09:24:03.921Z,70.50
2022-10-04T09:26:40.722Z,70.41
2022-10-04T09:29:35.201Z,70.88
2022-10-04T09:32:36.979Z,71.13
2022-10-04T09:35:32.751Z,71.08
2022-10-04T09:39:11.507Z,71.13
2022-10-04T09:41:59.633Z,70.96
2022-10-04T09:44:47.970Z,70.63
2022-10-04T09:47:37.306Z,70.53
2022-10-04T09:50:29.372Z,70.30
2022-10-04T09:53:08.287Z,70.52
2022-10-04T09:55:54.671Z,70.69
2022-10-04T09:58:52.641Z,70.63
2022-10-04T10:01:25.438Z,69.93
2022-10-04T10:04:19.111Z,69.21
2022-10-04T10:07:14.333Z,69.11
2022-10-04T10:10:09.633Z,68.75
2022-10-04T10:13:31.785Z,68.74
2022-10-04T10:16:06.640Z,68.61
2022-10-04T10:18:49.945Z,68.53
2022-10-04T10:21:31.904Z,68.48
2022-10-04T10:24:19.101Z,68.54
2022-10-04T10:27:06.960Z,68.32
2022-10-04T10:30:03.503Z,68.04
2022-10-04T10:32:50.499Z,67.61
2022-10-04T10:35:45.343Z,66.66
2022-10-04T10:38:34.904Z,66.14
2022-10-04T10:41:39.039Z,66.21
2022-10-04T10:44:40.845Z,65.40
2022-10-04T10:47:28.891Z,65.18
2022-10-04T10:50:16.388Z,64.92
2022-10-04T10:53:30.579Z,64.88
2022-10-04T10:56:33.673Z,64.21
2022-10-04T10:59:37.286Z,63.48
2022-10-04T11:02:48.239Z,62.47
2022-10-04T11:05:49.226Z,61.87
2022-10-04T11:08:36.617Z,62.26
2022-10-04T11:11:14.247Z,62.92
2022-10-04T11:14:12.207Z,62.84
2022-10-04T11:17:03.331Z,62.59
2022-10-04T11:20:06.378Z,62.58
2022-10-04T11:23:24.330Z,62.78
2022-10-04T11:26:30.194Z,62.79
2022-10-04T11:29:09.453Z,62.63
2022-10-04T11:32:02.258Z,62.72
2022-10-04T11:35:12.004Z,62.44
2022-10-04T11:38:00.368Z,61.69
2022-10-04T11:40:44.339Z,61.79
2022-10-04T11:43:33.097Z,61.72
2022-10-04T11:46:17.680Z,61.63
2022-10-04T11:49:03.290Z,61.48
2022-10-04T11:51:56.559Z,61.47
2022-10-04T11:54:57.855Z,61.45
2022-10-04T11:57:33.410Z,61.40
2022-10-04T12:00:16.494Z,61.74
2022-10-04T12:03:22.604Z,61.98
2022-10-04T12:06:17.639Z,61.88
2022-10-04T12:08:56.406Z,61.98
2022-10-04T12:12:03.800Z,61.27
2022-10-04T12:14:42.333Z,60.48
2022-10-04T12:17:43.724Z,60.19
2022-10-04T12:20:31.671Z,59.73
2022-10-04T12:23:16.712Z,58.87
2022-10-04T12:26:09.824Z,58.47
2022-10-04T12:29:03.894Z,58.12
2022-10-04T12:31:35.432Z,58.38
2022-10-04T12:34:15.355Z,58.21
2022-10-04T12:37:03.617Z,58.32
2022-10-04T12:40:02.983Z,57.97
2022-10-04T12:42:42.852Z,57.77
2022-10-04T12:45:47.538Z,57.85
2022-10-04T12:48:32.755Z,57.76
2022-10-04T12:51:20.546Z,57.34
2022-10-04T12:53:56.630Z,57.08
2022-10-04T12:56:39.986Z,56.82
2022-10-04T12:59:21.354Z,56.14
2022-10-04T13:02:03.199Z,55.93
2022-10-04T13:04:39.284Z,55.70
2022-10-04T13:07:27.970Z,55.39
2022-10-04T13:10:24.113Z,55.15
2022-10-04T13:13:35.503Z,54.45
2022-10-04T13:19:09.997Z,54.41
2022-10-04T13:22:13.522Z,54.78
2022-10-04T13:24:55.678Z,53.81
2022-10-04T13:27:45.047Z,53.56
2022-10-04T13:30:23.515Z,52.61
2022-10-04T13:33:01.385Z,52.58
2022-10-04T13:35:36.904Z,52.21
2022-10-04T13:38:35.322Z,52.39
2022-10-04T13:41:17.632Z,52.47
2022-10-04T13:44:01.330Z,52.32
2022-10-04T13:46:38.571Z,52.25
2022-10-04T13:49:27.108Z,52.42
2022-10-04T13:52:38.888Z,51.65
2022-10-04T13:55:39.922Z,51.74
2022-10-04T13:58:25.641Z,51.69
2022-10-04T14:01:18.728Z,51.57
2022-10-04T14:03:58.095Z,51.43
2022-10-04T14:07:05.796Z,51.33
2022-10-04T14:09:55.500Z,50.81
2022-10-04T14:12:48.187Z,51.03
2022-10-04T14:15:38.800Z,50.51
2022-10-04T14:18:47.509Z,50.33
2022-10-04T14:21:45.325Z,49.95
2022-10-04T14:24:51.911Z,49.61
2022-10-04T14:27:42.785Z,49.70
2022-10-04T14:30:35.019Z,49.95
2022-10-04T14:33:30.154Z,50.22
2022-10-04T14:36:26.011Z,50.34
2022-10-04T14:39:23.654Z,50.60
2022-10-04T14:42:23.703Z,50.87
2022-10-04T14:45:13.494Z,51.38
2022-10-04T14:48:18.721Z,51.54
2022-10-04T14:51:02.599Z,52.01
2022-10-04T14:53:36.771Z,52.48
2022-10-04T14:56:34.724Z,52.71
2022-10-04T14:59:22.761Z,52.94
2022-10-04T15:02:18.729Z,53.33
2022-10-04T15:05:09.375Z,53.55
2022-10-04T15:07:42.350Z,53.61
2022-10-04T15:10:18.417Z,54.03
2022-10-04T15:13:16.073Z,54.31
2022-10-04T15:16:01.059Z,54.69
2022-10-04T15:18:38.671Z,55.14
2022-10-04T15:21:22.756Z,55.41
2022-10-04T15:23:54.887Z,55.92
2022-10-04T15:26:49.262Z,55.95
2022-10-04T15:29:25.872Z,56.31
2022-10-04T15:32:05.807Z,56.62
2022-10-04T15:34:45.005Z,56.88
2022-10-04T15:37:24.846Z,57.25
2022-10-04T15:40:15.889Z,57.53
2022-10-04T15:43:07.864Z,57.99
2022-10-04T15:46:03.545Z,58.37
2022-10-04T15:48:57.062Z,58.88
2022-10-04T15:51:44.370Z,58.90
2022-10-04T15:54:15.240Z,59.01
2022-10-04T15:56:51.749Z,59.17
2022-10-04T15:59:46.511Z,59.53
2022-10-04T16:02:48.008Z,59.90
2022-10-04T16:05:22.902Z,59.99
2022-10-04T16:08:04.745Z,60.18
2022-10-04T16:10:52.507Z,60.27
2022-10-04T16:13:40.128Z,60.42
2022-10-04T16:16:40.561Z,60.62
2022-10-04T16:19:34.273Z,60.86
2022-10-04T16:22:17.545Z,61.01
2022-10-04T16:24:50.724Z,61.31
2022-10-04T16:27:42.556Z,61.46
2022-10-04T16:30:27.207Z,61.70
2022-10-04T16:33:25.358Z,62.05
2022-10-04T16:36:08.042Z,62.36
2022-10-04T16:39:06.166Z,62.70
2022-10-04T16:41:39.990Z,63.03
2022-10-04T16:44:28.146Z,63.14
2022-10-04T16:46:59.929Z,63.44
2022-10-04T16:49:40.892Z,63.56
2022-10-04T16:52:31.582Z,63.81
2022-10-04T16:55:23.949Z,63.99
2022-10-04T16:58:28.091Z,64.06
2022-10-04T17:01:42.719Z,64.31
2022-10-04T17:04:28.708Z,64.56
2022-10-04T17:06:58.700Z,64.80
2022-10-04T17:09:31.113Z,64.84
2022-10-04T17:12:13.005Z,65.02
2022-10-04T17:15:07.256Z,65.35
2022-10-04T17:17:45.389Z,65.69
2022-10-04T17:20:25.461Z,65.75
2022-10-04T17:23:05.939Z,65.96
2022-10-04T17:25:42.451Z,66.26
2022-10-04T17:28:25.553Z,66.33
2022-10-04T17:31:01.133Z,66.50
2022-10-04T17:33:42.896Z,66.80
2022-10-04T17:36:37.901Z,66.98
2022-10-04T17:39:39.053Z,67.28
2022-10-04T17:42:15.871Z,67.47
2022-10-04T17:44:59.834Z,67.61
2022-10-04T17:47:50.884Z,67.65
2022-10-04T17:50:43.951Z,67.75
2022-10-04T17:53:37.618Z,67.93
2022-10-04T17:56:08.668Z,68.23
2022-10-04T17:58:44.296Z,68.58
2022-10-04T18:01:18.730Z,68.60
2022-10-04T18:03:51.890Z,68.61
2022-10-04T18:06:31.969Z,68.79
2022-10-04T18:09:03.192Z,69.00
2022-10-04T18:11:43.060Z,69.40
2022-10-04T18:14:20.884Z,69.56
2022-10-04T18:16:52.938Z,69.67
2022-10-04T18:19:35.956Z,69.87
2022-10-04T18:22:11.996Z,69.91
2022-10-04T18:24:39.784Z,70.05
2022-10-04T18:27:18.371Z,70.08
2022-10-04T18:29:59.610Z,70.08
2022-10-04T18:32:36.131Z,70.29
2022-10-04T18:35:22.205Z,70.32
2022-10-04T18:37:51.434Z,70.41
2022-10-04T18:40:22.273Z,70.51
2022-10-04T18:42:56.490Z,70.63
2022-10-04T18:45:28.193Z,70.91
2022-10-04T18:47:58.674Z,71.08
2022-10-04T18:50:34.622Z,71.26
2022-10-04T18:53:17.336Z,71.33
2022-10-04T18:55:56.930Z,71.41
2022-10-04T18:59:11.036Z,71.49
2022-10-04T19:02:00.484Z,71.84
2022-10-04T19:04:45.125Z,71.97
2022-10-04T19:07:15.971Z,72.21
2022-10-04T19:10:11.047Z,72.26
2022-10-04T19:12:50.774Z,72.40
2022-10-04T19:15:33.657Z,72.62
2022-10-04T19:18:17.920Z,72.69
2022-10-04T19:20:51.603Z,72.34
2022-10-04T19:23:28.559Z,72.30
2022-10-04T19:26:30.568Z,72.58
2022-10-04T19:29:03.199Z,72.95
2022-10-04T19:31:40.560Z,73.24
2022-10-04T19:34:14.292Z,73.12
2022-10-04T19:36:50.857Z,73.08
2022-10-04T19:39:41.914Z,73.19
2022-10-04T19:42:14.492Z,73.39
2022-10-04T19:45:11.484Z,73.30
2022-10-04T19:47:48.217Z,73.10
2022-10-04T19:50:23.100Z,73.03
2022-10-04T19:52:53.556Z,73.06
2022-10-04T19:55:31.559Z,73.60
2022-10-04T19:58:07.624Z,73.71
2022-10-04T20:00:36.951Z,73.90
2022-10-04T20:03:11.404Z,73.88
2022-10-04T20:05:44.731Z,74.12
2022-10-04T20:08:13.871Z,73.76
2022-10-04T20:10:43.139Z,73.79
2022-10-04T20:13:24.327Z,74.09
2022-10-04T20:15:53.936Z,74.40
2022-10-04T20:18:59.830Z,74.34
2022-10-04T20:21:31.397Z,74.26
2022-10-04T20:24:00.900Z,74.43
2022-10-04T20:26:53.749Z,74.53
2022-10-04T20:30:10.069Z,74.52
2022-10-04T20:33:01.870Z,74.66
2022-10-04T20:36:10.449Z,75.12
2022-10-04T20:38:46.574Z,75.32
2022-10-04T20:42:04.919Z,75.52
2022-10-04T20:44:43.851Z,75.79
2022-10-04T20:47:21.866Z,75.92
2022-10-04T20:49:49.717Z,76.18
2022-10-04T20:52:18.782Z,76.05
2022-10-04T20:54:52.428Z,76.11
2022-10-04T20:57:23.132Z,75.97
2022-10-04T20:59:53.884Z,76.41
2022-10-04T21:02:23.245Z,76.41
2022-10-04T21:04:53.004Z,76.38
2022-10-04T21:07:23.427Z,76.61
2022-10-04T21:09:52.894Z,76.66
2022-10-04T21:12:30.913Z,76.48
2022-10-04T21:15:20.182Z,76.68
2022-10-04T21:18:02.010Z,76.82
2022-10-04T21:20:46.728Z,76.84
2022-10-04T21:23:22.721Z,76.98
2022-10-04T21:25:50.361Z,76.96
2022-10-04T21:28:33.174Z,76.87
2022-10-04T21:31:02.556Z,77.26
2022-10-04T21:33:32.921Z,77.39
2022-10-04T21:36:00.499Z,77.22
2022-10-04T21:38:28.533Z,76.94
2022-10-04T21:40:56.284Z,77.09
2022-10-04T21:43:25.057Z,77.27
2022-10-04T21:45:52.795Z,77.05
2022-10-04T21:48:22.540Z,77.27
2022-10-04T21:50:52.011Z,77.06
2022-10-04T21:53:20.011Z,77.19
2022-10-04T21:55:47.569Z,77.33
2022-10-04T21:58:15.089Z,77.69
2022-10-04T22:00:42.693Z,77.76
2022-10-04T22:03:10.252Z,77.81
2022-10-04T22:05:37.746Z,77.71
2022-10-04T22:08:05.430Z,77.66
2022-10-04T22:10:33.210Z,77.52
2022-10-04T22:13:00.728Z,77.45
2022-10-04T22:15:28.751Z,77.48
2022-10-04T22:17:56.421Z,77.51
2022-10-04T22:20:25.504Z,77.53
2022-10-04T22:22:54.936Z,77.83
2022-10-04T22:25:25.047Z,77.85
2022-10-04T22:27:53.286Z,77.90
2022-10-04T22:30:24.492Z,78.02
2022-10-04T22:32:55.264Z,78.24
2022-10-04T22:35:23.099Z,78.21
2022-10-04T22:37:50.910Z,78.14
2022-10-04T22:40:20.533Z,78.20
2022-10-04T22:42:51.764Z,78.24
2022-10-04T22:45:22.635Z,78.37
2022-10-04T22:47:51.187Z,78.43
2022-10-04T22:50:26.972Z,78.48
2022-10-04T22:52:57.237Z,78.53
2022-10-04T22:55:25.414Z,78.37
2022-10-04T22:57:53.017Z,78.46
2022-10-04T23:00:20.509Z,78.35
2022-10-04T23:02:48.583Z,78.28
2022-10-04T23:05:19.084Z,78.22
2022-10-04T23:07:48.157Z,78.36
2022-10-04T23:10:19.202Z,78.32
2022-10-04T23:12:48.379Z,78.58
2022-10-04T23:15:18.947Z,78.52
2022-10-04T23:17:53.186Z,78.59
2022-10-04T23:20:21.555Z,78.85
2022-10-04T23:22:50.906Z,78.97
2022-10-04T23:25:20.095Z,79.23
2022-10-04T23:27:48.291Z,79.16
2022-10-04T23:30:18.911Z,79.28
2022-10-04T23:32:49.830Z,79.39
2022-10-04T23:35:19.963Z,79.42
2022-10-04T23:37:48.246Z,79.44
2022-10-04T23:40:18.352Z,79.77
2022-10-04T23:42:48.026Z,79.64
2022-10-04T23:45:19.730Z,79.71
2022-10-04T23:47:49.323Z,79.62
2022-10-04T23:50:22.523Z,79.67
2022-10-04T23:52:54.693Z,79.77
2022-10-04T23:55:24.112Z,80.06
2022-10-04T23:57:51.768Z,80.34
